Eurika — LYRZ — position and weather

sailwx.info

Track history (hours):
 
Tides and Currents Weather Stations Pressure Air Temp Water Temp Dewpoint Dewpoint Depression Visibility Wind Speed Wind Dir Waves Ship Positions

Eurika

Last reported at 2014-Oct-20 07:24 UTC. Time now 2014-Oct-23 03:15 UTC.
Position N 43°38' E 004°38'.

Length 79 m.

MMSI: 277335000.

Date/timePositionNaut miles runAvg speedWind from/ knotsBaromVisibWave heightAir tempDewpointWater temp
2014-Oct-20 07:24N 43°38' E 004°38'6 6.7
2014-Oct-20 06:29N 43°32' E 004°43'7 7.4
2014-Oct-20 05:33N 43°26' E 004°44'4 4.1
2014-Oct-20 04:33N 43°23' E 004°48'0 0.0
2014-Oct-19 09:08N 43°23' E 004°48'0 0.0
2014-Oct-19 08:34N 43°23' E 004°48'3 2.7
2014-Oct-19 07:33N 43°23' E 004°52'6 6.2
2014-Oct-19 06:34N 43°20' E 004°59'9 6.4
2014-Oct-19 05:12N 43°11' E 005°02'4 6.6
2014-Oct-19 04:31N 43°08' E 004°58'7 6.8
2014-Oct-19 03:33N 43°03' E 004°52'28 7.0
2014-Oct-18 23:34N 42°42' E 004°26'8 7.6
2014-Oct-18 22:28N 42°36' E 004°18'6 6.7
2014-Oct-18 21:33N 42°32' E 004°12'7 6.4
2014-Oct-18 20:29N 42°27' E 004°06'9 6.8
2014-Oct-18 19:08N 42°20' E 003°58'4 6.5
2014-Oct-18 18:32N 42°17' E 003°55'7 6.8
2014-Oct-18 17:30N 42°12' E 003°48'7 6.9
2014-Oct-18 16:33N 42°07' E 003°42'7 7.0
2014-Oct-18 15:30N 42°02' E 003°36'9 7.8
2014-Oct-18 14:21N 41°55' E 003°27'6 7.5
2014-Oct-18 13:32N 41°51' E 003°21'8 7.5
2014-Oct-18 12:31N 41°46' E 003°13'8 7.4
2014-Oct-18 11:23N 41°41' E 003°05'9 7.2
2014-Oct-18 10:06N 41°35' E 002°56'5 7.3
2014-Oct-18 09:23N 41°31' E 002°50'23 7.3
2014-Oct-18 06:11N 41°16' E 002°27'12 7.3
2014-Oct-18 04:31N 41°08' E 002°15'7 7.5
2014-Oct-18 03:34N 41°03' E 002°08'8 7.2
2014-Oct-18 02:29N 40°58' E 002°00'7 7.3
2014-Oct-18 01:33N 40°53' E 001°53'8 7.7
2014-Oct-18 00:33N 40°48' E 001°46'8 7.7
2014-Oct-17 23:29N 40°43' E 001°38'7 7.7
2014-Oct-17 22:33N 40°38' E 001°31'8 7.8
2014-Oct-17 21:30N 40°33' E 001°22'15 7.8
2014-Oct-17 19:32N 40°23' E 001°06'8 8.0
2014-Oct-17 18:33N 40°18' E 000°58'17 8.4
2014-Oct-17 16:33N 40°08' E 000°41'9 8.3
2014-Oct-17 15:28N 40°03' E 000°31'43 1.6
2014-Oct-16 12:30N 39°53' E 001°26'8 8.0
2014-Oct-16 11:33N 39°55' E 001°36'8 8.3
2014-Oct-16 10:34N 39°58' E 001°46'8 7.8
2014-Oct-16 09:33N 39°60' E 001°56'8 8.2
2014-Oct-16 08:33N 40°02' E 002°06'8 8.2
2014-Oct-16 07:33N 40°04' E 002°17'8 8.0
2014-Oct-16 06:33N 40°06' E 002°27'8 7.8
2014-Oct-16 05:33N 40°08' E 002°37'7 7.2
2014-Oct-16 04:33N 40°10' E 002°46'7 7.1
2014-Oct-16 03:33N 40°11' E 002°55'8 7.4
2014-Oct-16 02:28N 40°13' E 003°05'299 7.9
2014-Oct-14 12:32N 40°56' E 009°35'2 2.4
2014-Oct-14 11:31N 40°56' E 009°32'0 0.0
2014-Oct-14 10:31N 40°56' E 009°32'0 0.0
2014-Oct-14 08:13N 40°56' E 009°32'0 0.0
2014-Oct-14 07:31N 40°56' E 009°32'0 0.0
2014-Oct-14 06:31N 40°56' E 009°32'0 0.0
2014-Oct-14 04:16N 40°56' E 009°32'0 0.0
2014-Oct-14 03:31N 40°56' E 009°32'0 0.0
2014-Oct-14 02:31N 40°56' E 009°32'0 0.0
2014-Oct-14 00:22N 40°56' E 009°32'0 0.0
2014-Oct-13 23:31N 40°56' E 009°32'0 0.0
2014-Oct-13 22:31N 40°56' E 009°32'0 0.0
2014-Oct-13 20:25N 40°56' E 009°32'0 0.0
2014-Oct-13 19:31N 40°56' E 009°32'0 0.0
2014-Oct-13 16:31N 40°56' E 009°32'0 0.0
2014-Oct-13 15:31N 40°56' E 009°32'0 0.0
2014-Oct-13 12:28N 40°56' E 009°32'0 0.0
2014-Oct-13 11:31N 40°56' E 009°32'0 0.0
2014-Oct-13 09:33N 40°56' E 009°32'0 0.0
2014-Oct-13 08:33N 40°56' E 009°32'0 0.0
2014-Oct-13 07:33N 40°56' E 009°32'0 0.0
2014-Oct-13 06:33N 40°56' E 009°32'2 2.2
2014-Oct-13 05:32N 40°56' E 009°35'55 2.7
2014-Oct-12 09:11N 41°29' E 008°37'5 8.1
2014-Oct-12 08:32N 41°32' E 008°31'184 8.3
2014-Oct-11 10:30N 43°14' E 005°05'8 8.5
2014-Oct-11 09:33N 43°21' E 004°58'7 7.0
2014-Oct-11 08:33N 43°23' E 004°49'0 0.4
2014-Oct-11 07:33N 43°23' E 004°48'5 4.7
2014-Oct-11 06:33N 43°26' E 004°44'  
Track history (hours):
 
Tides and Currents Weather Stations Pressure Air Temp Water Temp Dewpoint Dewpoint Depression Visibility Wind Speed Wind Dir Waves Ship Positions

Eurika

Last reported at 2014-Oct-20 07:24 UTC. Time now 2014-Oct-23 03:15 UTC.
Position N 43°38' E 004°38'.

Length 79 m.

MMSI: 277335000.

Date/timePositionNaut miles runAvg speedWind from/ knotsBaromVisibWave heightAir tempDewpointWater temp
2014-Oct-20 07:24N 43°38' E 004°38'6 6.7
2014-Oct-20 06:29N 43°32' E 004°43'7 7.4
2014-Oct-20 05:33N 43°26' E 004°44'4 4.1
2014-Oct-20 04:33N 43°23' E 004°48'0 0.0
2014-Oct-19 09:08N 43°23' E 004°48'0 0.0
2014-Oct-19 08:34N 43°23' E 004°48'3 2.7
2014-Oct-19 07:33N 43°23' E 004°52'6 6.2
2014-Oct-19 06:34N 43°20' E 004°59'9 6.4
2014-Oct-19 05:12N 43°11' E 005°02'4 6.6
2014-Oct-19 04:31N 43°08' E 004°58'7 6.8
2014-Oct-19 03:33N 43°03' E 004°52'28 7.0
2014-Oct-18 23:34N 42°42' E 004°26'8 7.6
2014-Oct-18 22:28N 42°36' E 004°18'6 6.7
2014-Oct-18 21:33N 42°32' E 004°12'7 6.4
2014-Oct-18 20:29N 42°27' E 004°06'9 6.8
2014-Oct-18 19:08N 42°20' E 003°58'4 6.5
2014-Oct-18 18:32N 42°17' E 003°55'7 6.8
2014-Oct-18 17:30N 42°12' E 003°48'7 6.9
2014-Oct-18 16:33N 42°07' E 003°42'7 7.0
2014-Oct-18 15:30N 42°02' E 003°36'9 7.8
2014-Oct-18 14:21N 41°55' E 003°27'6 7.5
2014-Oct-18 13:32N 41°51' E 003°21'8 7.5
2014-Oct-18 12:31N 41°46' E 003°13'8 7.4
2014-Oct-18 11:23N 41°41' E 003°05'9 7.2
2014-Oct-18 10:06N 41°35' E 002°56'5 7.3
2014-Oct-18 09:23N 41°31' E 002°50'23 7.3
2014-Oct-18 06:11N 41°16' E 002°27'12 7.3
2014-Oct-18 04:31N 41°08' E 002°15'7 7.5
2014-Oct-18 03:34N 41°03' E 002°08'8 7.2
2014-Oct-18 02:29N 40°58' E 002°00'7 7.3
2014-Oct-18 01:33N 40°53' E 001°53'8 7.7
2014-Oct-18 00:33N 40°48' E 001°46'8 7.7
2014-Oct-17 23:29N 40°43' E 001°38'7 7.7
2014-Oct-17 22:33N 40°38' E 001°31'8 7.8
2014-Oct-17 21:30N 40°33' E 001°22'15 7.8
2014-Oct-17 19:32N 40°23' E 001°06'8 8.0
2014-Oct-17 18:33N 40°18' E 000°58'17 8.4
2014-Oct-17 16:33N 40°08' E 000°41'9 8.3
2014-Oct-17 15:28N 40°03' E 000°31'43 1.6
2014-Oct-16 12:30N 39°53' E 001°26'8 8.0
2014-Oct-16 11:33N 39°55' E 001°36'8 8.3
2014-Oct-16 10:34N 39°58' E 001°46'8 7.8
2014-Oct-16 09:33N 39°60' E 001°56'8 8.2
2014-Oct-16 08:33N 40°02' E 002°06'8 8.2
2014-Oct-16 07:33N 40°04' E 002°17'8 8.0
2014-Oct-16 06:33N 40°06' E 002°27'8 7.8
2014-Oct-16 05:33N 40°08' E 002°37'7 7.2
2014-Oct-16 04:33N 40°10' E 002°46'7 7.1
2014-Oct-16 03:33N 40°11' E 002°55'8 7.4
2014-Oct-16 02:28N 40°13' E 003°05'299 7.9
2014-Oct-14 12:32N 40°56' E 009°35'2 2.4
2014-Oct-14 11:31N 40°56' E 009°32'0 0.0
2014-Oct-14 10:31N 40°56' E 009°32'0 0.0
2014-Oct-14 08:13N 40°56' E 009°32'0 0.0
2014-Oct-14 07:31N 40°56' E 009°32'0 0.0
2014-Oct-14 06:31N 40°56' E 009°32'0 0.0
2014-Oct-14 04:16N 40°56' E 009°32'0 0.0
2014-Oct-14 03:31N 40°56' E 009°32'0 0.0
2014-Oct-14 02:31N 40°56' E 009°32'0 0.0
2014-Oct-14 00:22N 40°56' E 009°32'0 0.0
2014-Oct-13 23:31N 40°56' E 009°32'0 0.0
2014-Oct-13 22:31N 40°56' E 009°32'0 0.0
2014-Oct-13 20:25N 40°56' E 009°32'0 0.0
2014-Oct-13 19:31N 40°56' E 009°32'0 0.0
2014-Oct-13 16:31N 40°56' E 009°32'0 0.0
2014-Oct-13 15:31N 40°56' E 009°32'0 0.0
2014-Oct-13 12:28N 40°56' E 009°32'0 0.0
2014-Oct-13 11:31N 40°56' E 009°32'0 0.0
2014-Oct-13 09:33N 40°56' E 009°32'0 0.0
2014-Oct-13 08:33N 40°56' E 009°32'0 0.0
2014-Oct-13 07:33N 40°56' E 009°32'0 0.0
2014-Oct-13 06:33N 40°56' E 009°32'2 2.2
2014-Oct-13 05:32N 40°56' E 009°35'55 2.7
2014-Oct-12 09:11N 41°29' E 008°37'5 8.1
2014-Oct-12 08:32N 41°32' E 008°31'184 8.3
2014-Oct-11 10:30N 43°14' E 005°05'8 8.5
2014-Oct-11 09:33N 43°21' E 004°58'7 7.0
2014-Oct-11 08:33N 43°23' E 004°49'0 0.4
2014-Oct-11 07:33N 43°23' E 004°48'5 4.7
2014-Oct-11 06:33N 43°26' E 004°44'  

Dump ship's entire track history